Time;durP1;ratioP1;P1;durP2;ratioP2;P2;SDS_P1;SDS_P2;PMS_P1;PMS_P2;Temp;Humidity;BMP_temperature;BMP_pressure;BME280_temperature;BME280_humidity;BME280_pressure;Samples;Min_cycle;Max_cycle;Signal;HPM_P1;HPM_P2
2022/06/25 00:01:02;;;;;;;9.52;4.22;;;;;;;17.41;100.00;100791.25;5034911;28;20047;-48
2022/06/25 00:03:27;;;;;;;10.68;4.20;;;;;;;17.39;100.00;100795.22;5037540;28;20436;-49
2022/06/25 00:05:53;;;;;;;10.15;3.72;;;;;;;17.37;100.00;100798.13;5018891;28;20024;-51
2022/06/25 00:08:18;;;;;;;8.95;3.60;;;;;;;17.36;100.00;100798.34;5036103;28;20012;-49
2022/06/25 00:10:43;;;;;;;6.65;3.25;;;;;;;17.33;100.00;100800.41;5036829;28;20029;-49
2022/06/25 00:13:08;;;;;;;5.85;3.35;;;;;;;17.32;100.00;100792.53;5036776;28;20025;-49
2022/06/25 00:15:34;;;;;;;11.32;3.65;;;;;;;17.31;100.00;100796.25;5035153;28;20036;-49
2022/06/25 00:17:59;;;;;;;9.85;3.58;;;;;;;17.29;100.00;100804.56;5035960;28;20017;-51
2022/06/25 00:20:25;;;;;;;6.57;3.50;;;;;;;17.28;100.00;100804.78;5036634;28;20121;-48
2022/06/25 00:22:50;;;;;;;10.63;3.40;;;;;;;17.25;100.00;100803.31;5036216;28;20035;-46
2022/06/25 00:25:16;;;;;;;13.68;3.60;;;;;;;17.24;100.00;100807.03;5036013;28;20502;-46
2022/06/25 00:27:41;;;;;;;4.85;3.30;;;;;;;17.23;100.00;100793.78;5036367;28;20017;-47
2022/06/25 00:30:08;;;;;;;5.07;3.17;;;;;;;17.22;100.00;100803.72;5021119;28;20021;-48
2022/06/25 00:32:33;;;;;;;6.03;3.20;;;;;;;17.20;100.00;100800.41;5036171;28;20525;-50
2022/06/25 00:34:59;;;;;;;10.27;3.33;;;;;;;17.16;100.00;100801.84;5035980;28;20100;-48
2022/06/25 00:37:24;;;;;;;5.57;3.30;;;;;;;17.19;100.00;100803.31;5035510;28;20033;-48
2022/06/25 00:39:50;;;;;;;12.38;3.15;;;;;;;17.17;100.00;100797.28;5036216;28;20048;-47
2022/06/25 00:42:15;;;;;;;9.85;3.53;;;;;;;17.15;100.00;100798.31;5036409;28;20525;-49
2022/06/25 00:44:41;;;;;;;7.50;3.30;;;;;;;17.15;100.00;100805.59;5035347;28;20033;-49
2022/06/25 00:47:08;;;;;;;6.68;3.30;;;;;;;17.13;100.00;100807.66;5035467;28;20186;-49
2022/06/25 00:49:33;;;;;;;8.10;3.10;;;;;;;17.11;100.00;100802.47;5036819;28;20021;-47
2022/06/25 00:52:02;;;;;;;14.90;3.20;;;;;;;17.08;100.00;100804.75;5035389;28;20029;-49
2022/06/25 00:54:34;;;;;;;11.00;3.25;;;;;;;17.07;100.00;100813.88;5035793;28;20052;-50
2022/06/25 00:57:02;;;;;;;10.02;3.33;;;;;;;17.03;100.00;100801.84;5034282;28;20480;-47
2022/06/25 00:59:28;;;;;;;6.75;3.22;;;;;;;17.02;100.00;100808.25;5031225;28;20078;-46
2022/06/25 01:01:54;;;;;;;12.85;3.30;;;;;;;16.98;100.00;100810.53;5016703;28;20170;-46
2022/06/25 01:04:20;;;;;;;8.43;3.50;;;;;;;16.94;100.00;100815.50;5033053;28;20104;-47
2022/06/25 01:06:45;;;;;;;4.53;3.22;;;;;;;16.92;100.00;100820.28;5030516;28;20052;-45
2022/06/25 01:09:11;;;;;;;4.30;3.28;;;;;;;16.89;100.00;100819.88;5032490;28;20429;-49
2022/06/25 01:11:37;;;;;;;6.20;3.65;;;;;;;16.86;100.00;100822.97;5033770;28;20033;-47
2022/06/25 01:14:07;;;;;;;6.82;3.83;;;;;;;16.84;100.00;100830.41;5014723;28;20148;-46
2022/06/25 01:16:32;;;;;;;7.35;3.78;;;;;;;16.82;100.00;100830.59;5030399;28;20029;-48
2022/06/25 01:18:58;;;;;;;7.50;3.50;;;;;;;16.76;100.00;100820.63;5031925;28;20017;-45
2022/06/25 01:21:23;;;;;;;10.85;4.05;;;;;;;16.74;100.00;100825.38;5029004;28;20695;-49
2022/06/25 01:23:49;;;;;;;5.65;3.70;;;;;;;16.72;100.00;100833.66;5034127;28;20180;-51
2022/06/25 01:26:14;;;;;;;9.00;3.88;;;;;;;16.69;100.00;100835.94;5032565;28;20020;-47
2022/06/25 01:28:39;;;;;;;9.20;3.83;;;;;;;16.63;100.00;100834.88;5034178;28;20048;-50
2022/06/25 01:31:05;;;;;;;6.43;3.75;;;;;;;16.62;100.00;100844.00;5029031;28;20017;-49
2022/06/25 01:33:30;;;;;;;10.93;4.10;;;;;;;16.60;100.00;100838.00;5031146;28;20066;-49
2022/06/25 01:35:55;;;;;;;11.48;4.00;;;;;;;16.58;100.00;100840.88;5031429;28;20023;-45
2022/06/25 01:38:20;;;;;;;5.68;3.92;;;;;;;16.58;100.00;100842.72;5032137;28;20119;-47
2022/06/25 01:40:46;;;;;;;8.70;4.05;;;;;;;16.58;100.00;100850.81;5032111;28;20028;-48
2022/06/25 01:43:11;;;;;;;9.63;4.20;;;;;;;16.54;100.00;100853.09;5033637;28;20051;-47
2022/06/25 01:45:37;;;;;;;8.10;3.92;;;;;;;16.53;100.00;100850.59;5027212;28;20108;-48
2022/06/25 01:48:07;;;;;;;9.98;4.10;;;;;;;16.52;100.00;100857.84;5031096;28;20021;-47
2022/06/25 01:50:34;;;;;;;5.65;3.65;;;;;;;16.48;100.00;100856.59;5029553;28;20469;-47
2022/06/25 01:52:59;;;;;;;11.60;4.28;;;;;;;16.48;100.00;100853.06;5032042;28;20021;-46
2022/06/25 01:55:25;;;;;;;8.15;3.90;;;;;;;16.45;100.00;100859.69;5032153;28;20271;-48
2022/06/25 01:57:51;;;;;;;9.90;3.95;;;;;;;16.44;100.00;100862.59;5033613;28;20025;-49
2022/06/25 02:00:20;;;;;;;9.18;4.10;;;;;;;16.44;100.00;100868.78;5031275;28;20024;-49
2022/06/25 02:02:46;;;;;;;7.80;3.97;;;;;;;16.40;100.00;100872.94;5029483;28;20028;-49
2022/06/25 02:05:14;;;;;;;7.00;4.03;;;;;;;16.39;100.00;100876.66;5030083;28;20033;-46
2022/06/25 02:07:39;;;;;;;11.20;4.30;;;;;;;16.36;100.00;100875.19;5030379;28;20382;-46
2022/06/25 02:10:06;;;;;;;9.02;4.10;;;;;;;16.36;100.00;100874.34;5033405;28;20013;-48
2022/06/25 02:12:31;;;;;;;6.20;3.90;;;;;;;16.37;100.00;100892.19;5028598;28;20086;-46
2022/06/25 02:14:56;;;;;;;13.88;4.03;;;;;;;16.34;100.00;100885.31;5030274;28;20399;-45
2022/06/25 02:17:21;;;;;;;8.50;4.15;;;;;;;16.32;100.00;100889.25;5030666;28;20021;-46
2022/06/25 02:19:47;;;;;;;10.07;4.03;;;;;;;16.32;100.00;100894.66;5029645;28;20116;-46
2022/06/25 02:22:14;;;;;;;10.57;4.10;;;;;;;16.30;100.00;100889.47;5031670;28;20025;-47
2022/06/25 02:24:44;;;;;;;12.60;4.07;;;;;;;16.29;100.00;100895.03;5032179;28;20021;-47
2022/06/25 02:27:10;;;;;;;8.45;3.95;;;;;;;16.27;100.00;100895.22;5033007;28;20025;-50
2022/06/25 02:29:35;;;;;;;10.07;4.13;;;;;;;16.26;100.00;100898.97;5009109;28;20094;-49
2022/06/25 02:32:01;;;;;;;7.60;4.10;;;;;;;16.26;100.00;100895.44;5029782;28;20032;-47
2022/06/25 02:34:26;;;;;;;9.70;4.00;;;;;;;16.23;100.00;100905.56;5030317;28;20474;-50
2022/06/25 02:36:52;;;;;;;7.82;4.40;;;;;;;16.22;100.00;100903.94;5030826;28;20141;-48
2022/06/25 02:39:17;;;;;;;9.18;4.30;;;;;;;16.20;100.00;100907.84;5031774;28;20048;-51
2022/06/25 02:41:44;;;;;;;8.77;3.92;;;;;;;16.19;100.00;100906.16;5032068;28;20423;-47
2022/06/25 02:44:09;;;;;;;10.15;4.35;;;;;;;16.17;100.00;100914.47;5031390;28;20020;-48
2022/06/25 02:46:34;;;;;;;8.65;4.00;;;;;;;16.15;100.00;100918.38;5027187;28;20092;-45
2022/06/25 02:48:59;;;;;;;10.75;4.15;;;;;;;16.14;100.00;100914.00;5029749;28;20033;-46
2022/06/25 02:51:25;;;;;;;13.52;4.10;;;;;;;16.12;100.00;100922.28;5029516;28;20024;-48
2022/06/25 02:53:50;;;;;;;8.77;4.10;;;;;;;16.11;100.00;100923.31;5031091;28;20381;-51
2022/06/25 02:59:02;;;;;;;9.75;4.38;;;;;;;16.11;100.00;100930.59;5030506;28;20132;-49
2022/06/25 03:01:28;;;;;;;7.80;4.25;;;;;;;16.06;100.00;100923.09;5031771;28;20029;-50
2022/06/25 03:03:54;;;;;;;9.25;4.53;;;;;;;16.07;100.00;100923.91;5027654;28;20025;-50
2022/06/25 03:06:20;;;;;;;11.85;4.78;;;;;;;16.04;100.00;100928.66;5029085;28;20446;-47
2022/06/25 03:08:46;;;;;;;11.68;4.53;;;;;;;16.03;100.00;100937.75;5031012;28;20029;-49
2022/06/25 03:11:12;;;;;;;11.82;4.78;;;;;;;16.01;100.00;100931.75;5020057;28;20064;-49
2022/06/25 03:13:37;;;;;;;9.80;4.28;;;;;;;16.02;100.00;100929.88;5033071;28;20543;-50
2022/06/25 03:16:04;;;;;;;19.92;4.78;;;;;;;16.03;100.00;100928.84;5031968;28;20075;-46
2022/06/25 03:18:30;;;;;;;11.27;4.53;;;;;;;16.04;100.00;100925.97;5034220;28;20047;-47
2022/06/25 03:20:55;;;;;;;9.30;4.45;;;;;;;16.07;100.00;100931.97;5015644;28;20032;-47
2022/06/25 03:23:20;;;;;;;8.25;4.13;;;;;;;16.05;100.00;100929.50;5016138;28;20043;-47
2022/06/25 03:25:46;;;;;;;7.82;4.75;;;;;;;16.06;100.00;100930.34;5034565;28;20025;-49
2022/06/25 03:28:13;;;;;;;9.68;4.38;;;;;;;16.04;100.00;100941.31;5033644;28;20139;-49
2022/06/25 03:30:38;;;;;;;11.93;5.15;;;;;;;16.10;100.00;100945.91;5031745;28;20025;-46
2022/06/25 03:33:03;;;;;;;10.15;4.80;;;;;;;16.10;100.00;100935.13;5035682;28;20039;-48
2022/06/25 03:35:29;;;;;;;10.88;4.95;;;;;;;16.11;100.00;100950.28;5037774;28;20455;-50
2022/06/25 03:37:55;;;;;;;8.50;4.57;;;;;;;16.14;100.00;100944.50;5030303;28;20021;-47
2022/06/25 03:40:20;;;;;;;12.10;5.28;;;;;;;16.17;100.00;100940.56;5037700;28;20025;-48
2022/06/25 03:42:45;;;;;;;14.95;4.85;;;;;;;16.17;100.00;100943.25;5038052;28;20095;-47
2022/06/25 03:45:11;;;;;;;10.88;5.45;;;;;;;16.16;100.00;100939.75;5034482;28;20428;-46
2022/06/25 03:47:36;;;;;;;9.95;5.07;;;;;;;16.20;100.00;100938.31;5037371;28;20554;-47
2022/06/25 03:50:02;;;;;;;17.20;5.60;;;;;;;16.22;100.00;100935.41;5037177;28;20031;-46
2022/06/25 03:52:27;;;;;;;10.57;5.47;;;;;;;16.31;100.00;100945.03;5037367;28;20025;-47
2022/06/25 03:54:53;;;;;;;11.90;5.20;;;;;;;16.37;100.00;100955.00;5037656;28;20061;-48
2022/06/25 03:57:18;;;;;;;12.07;5.63;;;;;;;16.44;100.00;100956.94;5037800;28;20122;-46
2022/06/25 03:59:44;;;;;;;9.05;5.50;;;;;;;16.42;100.00;100957.13;5036054;28;20124;-51
2022/06/25 04:02:09;;;;;;;11.45;5.53;;;;;;;16.44;100.00;100955.06;5035932;28;20019;-49
2022/06/25 04:04:34;;;;;;;10.25;5.40;;;;;;;16.49;100.00;100959.88;5037387;28;20025;-50
2022/06/25 04:07:00;;;;;;;17.23;5.82;;;;;;;16.49;100.00;100947.22;5036322;28;20010;-48
2022/06/25 04:09:25;;;;;;;13.25;5.57;;;;;;;16.56;100.00;100952.66;5037347;28;20146;-46
2022/06/25 04:11:50;;;;;;;11.13;5.40;;;;;;;16.55;100.00;100954.53;5037477;28;20020;-45
2022/06/25 04:14:15;;;;;;;10.40;5.47;;;;;;;16.60;100.00;100957.44;5035786;28;20029;-49
2022/06/25 04:16:41;;;;;;;11.45;5.55;;;;;;;16.58;100.00;100948.75;5035393;28;20028;-45
2022/06/25 04:19:06;;;;;;;9.73;5.10;;;;;;;16.63;100.00;100952.69;5036841;28;20614;-46
2022/06/25 04:21:32;;;;;;;6.68;4.80;;;;;;;16.59;100.00;100957.66;5036902;28;20571;-47
2022/06/25 04:23:57;;;;;;;9.00;5.07;;;;;;;16.62;100.00;100957.25;5036923;28;20040;-47
2022/06/25 04:26:23;;;;;;;11.75;4.95;;;;;;;16.55;100.00;100962.59;5036798;28;20017;-50
2022/06/25 04:29:03;;;;;;;9.40;5.10;;;;;;;16.63;100.00;100966.16;5036326;28;20017;-49
2022/06/25 04:31:29;;;;;;;11.75;5.28;;;;;;;16.66;100.00;100961.22;5035257;28;20117;-50
2022/06/25 04:33:55;;;;;;;12.30;5.25;;;;;;;16.69;100.00;100977.00;5036664;28;21034;-47
2022/06/25 04:36:20;;;;;;;10.13;5.25;;;;;;;16.69;100.00;100968.91;5036050;28;20029;-47
2022/06/25 04:38:46;;;;;;;11.45;4.85;;;;;;;16.75;100.00;100972.66;5030716;28;20341;-47
2022/06/25 04:41:11;;;;;;;16.00;4.75;;;;;;;16.80;100.00;100972.91;5035858;28;20025;-47
2022/06/25 04:43:37;;;;;;;8.60;5.03;;;;;;;16.83;100.00;100980.59;5035478;28;20029;-47
2022/06/25 04:46:02;;;;;;;13.93;5.22;;;;;;;16.87;100.00;100989.16;5033699;28;20402;-46
2022/06/25 04:48:28;;;;;;;10.43;4.95;;;;;;;16.90;100.00;100980.66;5036250;28;20070;-46
2022/06/25 04:50:53;;;;;;;9.75;5.25;;;;;;;16.93;100.00;100986.50;5036139;28;20024;-48
2022/06/25 04:53:19;;;;;;;8.63;5.10;;;;;;;16.93;100.00;100993.75;5036626;28;20555;-47
2022/06/25 04:55:44;;;;;;;13.93;5.32;;;;;;;17.00;100.00;100985.72;5036381;28;20113;-45
2022/06/25 04:58:10;;;;;;;11.13;5.22;;;;;;;17.08;100.00;100989.06;5035107;28;20396;-47
2022/06/25 05:00:35;;;;;;;10.13;4.65;;;;;;;17.19;100.00;100994.91;5035324;28;20029;-51
2022/06/25 05:03:01;;;;;;;11.15;4.97;;;;;;;17.28;100.00;100999.94;5035045;28;20441;-50
2022/06/25 05:05:26;;;;;;;6.85;4.78;;;;;;;17.31;100.00;100990.59;5035981;28;20536;-46
2022/06/25 05:07:51;;;;;;;9.85;4.90;;;;;;;17.36;100.00;100995.41;5036163;28;20029;-50
2022/06/25 05:10:17;;;;;;;13.57;4.65;;;;;;;17.41;100.00;101001.84;5035774;28;20029;-48
2022/06/25 05:15:26;;;;;;;7.57;4.50;;;;;;;17.42;100.00;101008.09;5033721;28;20464;-49
2022/06/25 05:17:51;;;;;;;15.25;4.75;;;;;;;17.41;100.00;101007.25;5035869;28;20483;-51
2022/06/25 05:20:16;;;;;;;13.13;4.78;;;;;;;17.43;100.00;101009.75;5035629;28;20029;-50
2022/06/25 05:22:42;;;;;;;12.43;4.43;;;;;;;17.43;100.00;101017.84;5016978;28;20033;-48
2022/06/25 05:25:08;;;;;;;7.30;4.13;;;;;;;17.43;100.00;101007.06;5035763;28;20508;-47
2022/06/25 05:27:33;;;;;;;10.48;4.43;;;;;;;17.45;100.00;101018.50;5035627;28;20024;-46
2022/06/25 05:29:58;;;;;;;8.23;3.92;;;;;;;17.49;100.00;101015.19;5027551;28;20033;-46
2022/06/25 05:32:24;;;;;;;12.85;4.10;;;;;;;17.54;100.00;101022.69;5016634;28;20025;-45
2022/06/25 05:34:49;;;;;;;11.52;4.35;;;;;;;17.51;100.00;101012.28;5016039;28;20025;-46
2022/06/25 05:37:15;;;;;;;9.30;4.45;;;;;;;17.58;100.00;101017.69;5021784;28;20451;-51
2022/06/25 05:39:41;;;;;;;10.70;4.35;;;;;;;17.61;100.00;101020.81;5019120;28;20029;-46
2022/06/25 05:42:06;;;;;;;10.45;4.70;;;;;;;17.77;100.00;101032.28;5015169;28;20076;-49
2022/06/25 05:44:32;;;;;;;10.15;4.88;;;;;;;17.85;100.00;101027.56;5014615;28;20029;-50
2022/06/25 05:46:57;;;;;;;13.55;4.70;;;;;;;17.97;100.00;101027.78;5013347;28;20021;-50
2022/06/25 05:49:22;;;;;;;7.97;3.95;;;;;;;18.01;100.00;101031.75;5016261;28;20049;-49
2022/06/25 05:51:48;;;;;;;12.55;4.03;;;;;;;18.04;100.00;101030.50;5015187;28;20021;-48
2022/06/25 05:54:13;;;;;;;10.57;4.13;;;;;;;18.03;100.00;101036.97;5014393;28;20059;-49
2022/06/25 05:56:38;;;;;;;12.68;4.55;;;;;;;18.01;100.00;101041.75;5015271;28;20745;-48
2022/06/25 05:59:04;;;;;;;10.05;4.00;;;;;;;18.02;100.00;101048.78;5015071;28;20201;-48
2022/06/25 06:01:30;;;;;;;8.43;3.70;;;;;;;17.96;100.00;101047.75;5004201;28;20107;-49
2022/06/25 06:03:55;;;;;;;9.43;3.90;;;;;;;17.97;100.00;101048.59;5018131;28;20182;-51
2022/06/25 06:06:21;;;;;;;12.82;3.95;;;;;;;18.02;100.00;101056.91;5017191;28;20533;-51
2022/06/25 06:08:46;;;;;;;10.23;4.10;;;;;;;18.11;100.00;101052.97;5027777;28;20024;-51
2022/06/25 06:11:11;;;;;;;11.68;4.50;;;;;;;18.17;100.00;101054.03;5034033;28;20021;-49
2022/06/25 06:13:36;;;;;;;8.80;4.25;;;;;;;18.24;100.00;101066.53;5034429;28;20029;-51
2022/06/25 06:16:02;;;;;;;10.88;4.55;;;;;;;18.30;100.00;101064.03;5015430;28;20025;-50
2022/06/25 06:18:27;;;;;;;10.00;4.00;;;;;;;18.39;100.00;101065.47;5015799;28;20021;-49
2022/06/25 06:20:53;;;;;;;10.65;4.10;;;;;;;18.48;100.00;101069.63;5034284;28;20052;-50
2022/06/25 06:23:18;;;;;;;8.30;4.40;;;;;;;18.67;100.00;101064.41;5034921;28;20315;-50
2022/06/25 06:25:43;;;;;;;10.13;4.38;;;;;;;18.81;100.00;101072.31;5034944;28;20086;-48
2022/06/25 06:28:08;;;;;;;18.00;5.30;;;;;;;18.78;100.00;101069.22;5033320;28;20048;-49
2022/06/25 06:30:34;;;;;;;8.73;3.92;;;;;;;18.85;100.00;101072.75;5033632;28;20021;-48
2022/06/25 06:32:59;;;;;;;13.15;4.60;;;;;;;18.99;100.00;101077.13;5033614;28;20029;-48
2022/06/25 06:35:24;;;;;;;8.85;4.28;;;;;;;19.14;100.00;101082.28;5033633;28;20021;-47
2022/06/25 06:37:50;;;;;;;8.82;3.95;;;;;;;19.19;100.00;101081.66;5028049;28;20049;-46
2022/06/25 06:40:15;;;;;;;11.13;4.10;;;;;;;19.19;100.00;101070.81;5034729;28;20163;-47
2022/06/25 06:42:41;;;;;;;9.05;4.00;;;;;;;19.15;100.00;101077.72;5034525;28;20413;-46
2022/06/25 06:45:07;;;;;;;14.95;4.00;;;;;;;19.26;100.00;101079.75;5032494;28;20021;-46
2022/06/25 06:47:32;;;;;;;11.25;4.60;;;;;;;19.30;100.00;101072.88;5034012;28;20028;-51
2022/06/25 06:49:57;;;;;;;10.77;4.35;;;;;;;19.26;100.00;101081.63;5033762;28;20082;-46
2022/06/25 06:52:23;;;;;;;9.98;4.10;;;;;;;19.19;100.00;101073.53;5033471;28;20040;-47
2022/06/25 06:54:48;;;;;;;9.63;4.50;;;;;;;19.10;100.00;101085.63;5034487;28;20038;-50
2022/06/25 06:57:14;;;;;;;11.05;4.57;;;;;;;19.09;100.00;101075.84;5034346;28;20065;-48
2022/06/25 06:59:40;;;;;;;10.20;4.43;;;;;;;19.26;100.00;101078.91;5033195;28;20104;-50
2022/06/25 07:02:06;;;;;;;8.05;4.47;;;;;;;19.39;100.00;101087.00;5033406;28;20188;-47
2022/06/25 07:04:31;;;;;;;8.55;4.45;;;;;;;19.45;100.00;101069.06;5034539;28;20205;-51
2022/06/25 07:06:57;;;;;;;10.23;4.38;;;;;;;19.60;100.00;101083.16;5035820;28;20029;-46
2022/06/25 07:09:22;;;;;;;7.35;3.92;;;;;;;19.70;100.00;101086.22;5024269;28;20013;-51
2022/06/25 07:11:48;;;;;;;13.77;4.18;;;;;;;19.86;100.00;101078.72;5020272;28;20029;-47
2022/06/25 07:14:13;;;;;;;9.63;4.28;;;;;;;19.93;100.00;101083.03;5036842;28;20025;-48
2022/06/25 07:16:39;;;;;;;10.02;4.20;;;;;;;19.94;100.00;101084.69;5037321;28;20044;-46
2022/06/25 07:19:05;;;;;;;9.05;3.90;;;;;;;19.92;100.00;101080.53;5037724;28;20104;-45
2022/06/25 07:21:30;;;;;;;7.72;3.97;;;;;;;19.92;100.00;101089.53;5036660;28;20044;-45
2022/06/25 07:23:56;;;;;;;11.52;3.97;;;;;;;19.99;100.00;101081.31;5037426;28;20251;-46
2022/06/25 07:26:22;;;;;;;8.77;3.80;;;;;;;20.07;100.00;101089.19;5037951;28;20017;-46
2022/06/25 07:28:48;;;;;;;9.75;3.50;;;;;;;20.16;100.00;101092.47;5037693;28;20482;-49
2022/06/25 07:31:14;;;;;;;9.85;3.50;;;;;;;20.36;100.00;101086.91;5036530;28;20045;-48
2022/06/25 07:33:39;;;;;;;12.05;3.50;;;;;;;20.47;100.00;101088.94;5020042;28;20599;-49
2022/06/25 07:36:05;;;;;;;10.77;3.40;;;;;;;20.61;100.00;101094.25;5018035;28;20024;-46
2022/06/25 07:38:31;;;;;;;11.13;3.47;;;;;;;20.57;100.00;101096.56;5030176;28;20280;-48
2022/06/25 07:40:56;;;;;;;9.68;3.60;;;;;;;20.64;100.00;101096.56;5037456;28;20039;-49
2022/06/25 07:43:22;;;;;;;6.65;3.22;;;;;;;20.80;100.00;101093.25;5036754;28;20342;-48
2022/06/25 07:45:48;;;;;;;8.25;3.28;;;;;;;21.09;100.00;101093.59;5036958;28;20035;-47
2022/06/25 07:48:14;;;;;;;9.13;3.42;;;;;;;21.50;97.09;101096.72;5037103;28;20104;-45
2022/06/25 07:53:24;;;;;;;9.43;3.47;;;;;;;21.57;95.58;101092.88;5037317;28;21045;-46
2022/06/25 07:55:49;;;;;;;12.95;3.22;;;;;;;21.58;96.48;101099.16;5037302;28;20135;-48
2022/06/25 07:58:14;;;;;;;9.93;3.92;;;;;;;21.28;95.91;101093.63;5036180;28;20028;-47
2022/06/25 08:00:39;;;;;;;11.48;3.97;;;;;;;20.90;97.03;101094.66;5036733;28;20032;-48
2022/06/25 08:03:05;;;;;;;10.90;3.45;;;;;;;20.79;98.79;101105.19;5036693;28;20032;-45
2022/06/25 08:05:32;;;;;;;8.02;3.30;;;;;;;20.61;99.55;101105.94;5035912;28;20020;-47
2022/06/25 08:07:57;;;;;;;18.45;3.80;;;;;;;20.50;100.00;101107.47;5030320;28;20272;-47
2022/06/25 08:10:23;;;;;;;13.38;3.25;;;;;;;20.36;100.00;101102.38;5029829;28;20040;-49
2022/06/25 08:12:48;;;;;;;6.90;3.15;;;;;;;20.25;100.00;101112.06;5036166;28;20411;-47
2022/06/25 08:15:16;;;;;;;14.05;3.00;;;;;;;20.19;100.00;101102.88;5036205;28;20037;-50
2022/06/25 08:17:42;;;;;;;7.72;3.22;;;;;;;20.17;100.00;101106.88;5035624;28;20552;-45
2022/06/25 08:20:08;;;;;;;7.47;2.50;;;;;;;20.13;100.00;101103.78;5017689;28;20144;-48
2022/06/25 08:22:33;;;;;;;10.05;2.63;;;;;;;20.06;100.00;101101.13;5018149;28;20082;-49
2022/06/25 08:24:58;;;;;;;6.32;2.72;;;;;;;20.09;100.00;101113.38;5018436;28;20368;-47
2022/06/25 08:27:24;;;;;;;6.68;2.78;;;;;;;20.12;100.00;101107.53;5036394;28;20160;-48
2022/06/25 08:29:50;;;;;;;8.02;2.83;;;;;;;20.22;100.00;101117.91;5017543;28;20055;-49
2022/06/25 08:32:15;;;;;;;14.30;3.10;;;;;;;20.26;100.00;101111.81;5035979;28;20560;-48
2022/06/25 08:34:40;;;;;;;5.70;3.10;;;;;;;20.20;100.00;101109.16;5035966;28;20025;-45
2022/06/25 08:37:06;;;;;;;9.20;2.92;;;;;;;20.23;100.00;101114.13;5035014;28;20091;-48
2022/06/25 08:39:31;;;;;;;13.73;2.88;;;;;;;20.23;100.00;101120.41;5036322;28;20032;-49
2022/06/25 08:42:00;;;;;;;4.93;2.85;;;;;;;20.34;100.00;101118.03;5036165;28;20021;-46
2022/06/25 08:44:25;;;;;;;6.32;2.65;;;;;;;20.37;100.00;101115.72;5035193;28;20033;-48
2022/06/25 08:46:51;;;;;;;9.73;3.00;;;;;;;20.37;100.00;101114.91;5036073;28;20364;-47
2022/06/25 08:49:18;;;;;;;10.07;2.67;;;;;;;20.31;100.00;101105.72;5036343;28;20144;-50
2022/06/25 08:51:45;;;;;;;7.15;2.65;;;;;;;20.36;100.00;101114.03;5017849;28;20381;-50
2022/06/25 08:54:10;;;;;;;7.40;2.70;;;;;;;20.41;100.00;101107.97;5035629;28;20048;-49
2022/06/25 08:56:36;;;;;;;12.77;2.72;;;;;;;20.60;100.00;101111.56;5035711;28;20494;-48
2022/06/25 08:59:02;;;;;;;5.70;2.70;;;;;;;20.86;97.43;101119.53;5034479;28;20590;-47
2022/06/25 09:01:27;;;;;;;5.25;2.40;;;;;;;21.11;97.85;101118.66;5035851;28;20024;-47
2022/06/25 09:03:53;;;;;;;7.10;2.30;;;;;;;21.40;95.21;101111.66;5036385;28;20040;-45
2022/06/25 09:06:20;;;;;;;4.65;2.40;;;;;;;21.67;93.99;101111.34;5034591;28;20029;-47
2022/06/25 09:09:16;;;;;;;10.88;2.70;;;;;;;21.80;94.49;101121.25;5022793;28;20025;-46
2022/06/25 09:12:04;;;;;;;7.05;2.38;;;;;;;21.93;94.25;101118.34;5024869;28;20278;-45
2022/06/25 09:14:31;;;;;;;5.57;2.35;;;;;;;21.90;93.30;101118.81;5034889;28;20099;-49
2022/06/25 09:17:06;;;;;;;3.50;2.58;;;;;;;21.81;93.33;101133.78;5034808;28;20025;-44
2022/06/25 09:19:40;;;;;;;5.90;2.65;;;;;;;21.70;93.48;101127.22;5035734;28;20408;-48
2022/06/25 09:22:06;;;;;;;7.13;2.50;;;;;;;21.71;93.24;101126.16;5034003;28;20113;-46
2022/06/25 09:25:07;;;;;;;6.40;2.40;;;;;;;21.80;94.01;101118.53;5035569;28;20039;-48
2022/06/25 09:27:38;;;;;;;5.70;2.63;;;;;;;21.93;92.89;101117.53;4952895;28;20058;-45
2022/06/25 09:30:09;;;;;;;;;;;;;;;22.11;93.92;101122.06;5011103;28;20352;-50
2022/06/25 09:32:49;;;;;;;7.15;2.17;;;;;;;22.18;91.71;101120.06;5035054;28;19909;-46
2022/06/25 09:35:28;;;;;;;7.47;1.80;;;;;;;22.07;91.71;101119.00;5035672;28;20039;-47
2022/06/25 09:38:04;;;;;;;4.82;1.70;;;;;;;21.96;91.29;101119.75;5033862;28;20384;-50
2022/06/25 09:40:29;;;;;;;6.53;1.90;;;;;;;21.83;94.91;101115.34;5035551;28;20021;-47
2022/06/25 09:43:09;;;;;;;6.80;1.98;;;;;;;21.85;93.66;101126.81;5034588;28;20027;-47
2022/06/25 09:45:36;;;;;;;7.05;2.28;;;;;;;21.93;93.57;101123.78;5034589;28;20087;-49
2022/06/25 09:48:01;;;;;;;5.55;1.98;;;;;;;22.02;91.42;101113.41;5033837;28;20035;-50
2022/06/25 09:50:27;;;;;;;4.68;2.10;;;;;;;22.03;90.59;101117.81;5035507;28;20486;-48
2022/06/25 09:52:56;;;;;;;6.15;1.60;;;;;;;22.08;91.76;101123.38;5034956;28;20415;-50
2022/06/25 09:55:24;;;;;;;3.63;1.50;;;;;;;22.13;90.35;101120.78;5034813;28;20049;-47
2022/06/25 09:57:51;;;;;;;5.07;1.52;;;;;;;22.16;91.02;101127.66;5034260;28;20052;-46
2022/06/25 10:00:18;;;;;;;5.45;1.60;;;;;;;22.06;90.70;101127.38;5033606;28;20299;-48
2022/06/25 10:02:48;;;;;;;6.03;1.83;;;;;;;21.93;91.95;101128.41;5034959;28;20562;-47
2022/06/25 10:05:17;;;;;;;5.40;1.45;;;;;;;21.95;91.50;101139.88;5034657;28;20029;-48
2022/06/25 10:07:59;;;;;;;5.03;1.65;;;;;;;21.95;91.66;101134.44;5029570;28;20180;-48
2022/06/25 10:10:26;;;;;;;4.72;1.60;;;;;;;22.22;92.50;101132.19;5027489;28;20032;-46
2022/06/25 10:12:52;;;;;;;4.65;1.80;;;;;;;22.62;89.54;101123.41;5033999;28;20078;-48
2022/06/25 10:15:19;;;;;;;5.32;1.80;;;;;;;23.03;91.56;101137.16;5016291;28;20651;-48
2022/06/25 10:17:48;;;;;;;8.07;2.00;;;;;;;23.14;87.70;101133.66;5034476;28;20021;-46
2022/06/25 10:20:16;;;;;;;5.07;1.75;;;;;;;23.25;87.32;101137.41;5035082;28;20464;-48
2022/06/25 10:22:43;;;;;;;4.72;1.60;;;;;;;23.11;85.46;101134.13;5034308;28;20111;-47
2022/06/25 10:25:19;;;;;;;5.20;1.80;;;;;;;22.80;87.28;101133.38;5033379;28;20028;-49
2022/06/25 10:27:49;;;;;;;8.73;1.90;;;;;;;22.78;88.08;101129.25;5033960;28;20290;-49
2022/06/25 10:30:34;;;;;;;;;;;;;;;22.99;86.72;101123.19;5034305;28;20115;-47
2022/06/25 10:32:59;;;;;;;4.88;1.80;;;;;;;23.43;86.95;101117.38;5032600;28;19908;-46
2022/06/25 10:35:30;;;;;;;6.80;1.77;;;;;;;24.17;83.86;101117.50;5034800;28;20073;-46
2022/06/25 10:38:02;;;;;;;6.97;1.77;;;;;;;24.93;81.32;101111.69;5025858;28;20128;-50
2022/06/25 10:40:33;;;;;;;8.65;1.88;;;;;;;25.34;77.02;101114.19;5035124;28;20395;-50
2022/06/25 10:43:03;;;;;;;4.22;1.67;;;;;;;25.13;77.92;101107.56;5038042;28;20517;-46
2022/06/25 10:45:31;;;;;;;;;;;;;;;25.31;78.09;101112.75;5038473;28;20029;-50
2022/06/25 10:47:58;;;;;;;3.40;1.40;;;;;;;24.97;73.04;101109.25;5038599;28;19920;-50
2022/06/25 10:50:25;;;;;;;3.70;1.30;;;;;;;24.99;71.15;101128.16;5038811;28;20426;-48
2022/06/25 10:53:02;;;;;;;6.60;1.20;;;;;;;24.97;72.12;101124.81;5038468;28;20029;-51
2022/06/25 10:55:29;;;;;;;2.85;1.20;;;;;;;24.79;69.93;101129.47;5037343;28;20103;-46
2022/06/25 10:58:15;;;;;;;6.60;1.38;;;;;;;24.52;74.19;101118.34;5037052;28;20054;-46
2022/06/25 11:00:47;;;;;;;3.85;1.40;;;;;;;24.64;73.68;101119.13;5009676;28;20373;-49
2022/06/25 11:03:13;;;;;;;2.60;1.30;;;;;;;25.03;75.76;101115.63;5038245;28;20028;-49
2022/06/25 11:05:44;;;;;;;3.53;1.38;;;;;;;25.35;73.61;101106.78;5036524;28;20178;-50
2022/06/25 11:08:11;;;;;;;3.20;1.10;;;;;;;25.51;67.11;101116.84;5029967;28;20026;-50
2022/06/25 11:10:38;;;;;;;5.63;1.20;;;;;;;25.61;68.41;101106.03;5032714;28;20116;-46
2022/06/25 11:13:03;;;;;;;6.05;1.08;;;;;;;25.28;68.53;101104.25;5037117;28;20156;-50
2022/06/25 11:15:49;;;;;;;4.97;1.30;;;;;;;24.94;68.69;101109.75;5037303;28;20595;-49
2022/06/25 11:18:14;;;;;;;2.13;1.10;;;;;;;24.64;69.90;101107.38;5037051;28;20039;-66
2022/06/25 11:20:42;;;;;;;1.88;0.88;;;;;;;24.70;69.43;101107.22;5037453;28;20412;-49
2022/06/25 11:23:12;;;;;;;4.78;1.10;;;;;;;25.05;72.89;101110.72;5037268;28;20016;-51